Rudyard, Montana
Current Conditions -  °F | °C
As of 10:53 AM on Saturday 25 Oct 2014 (Local Time) from KHVR Reporting Station
Clear Clear  
Wind Chill: 52°   Ceiling: Unl
Heat Index: 52°   Visibility: 10mi
Dew Point: 33°   Wind: 16mph
Humidity: 49%   Direction: 60°ENE
Pressure: 29.92"   Gusts: NA
Location:  48.56°N, 110.56°W
Report Text: KHVR 251653Z AUTO 06014KT 10SM CLR 11/01 A2992 RMK AO2 SLP143 T01110006 $
Loading
Personal Weather Stations






























Interactive Weather Map
Tropical Storm Tracking
New forecast layout! Learn more

10-Day Weather Forecast

Advertisements
Track Severe Weather on mobile